Faust — SLKQ — position and weather

sailwx.info

Track history (hours):
 
Tides and Currents Weather Stations Pressure Air Temp Water Temp Dewpoint Dewpoint Depression Visibility Wind Speed Wind Dir Waves Ship Positions

Faust

Last reported at 2017-Aug-23 15:07 UTC. Time now 2017-Aug-23 23:27 UTC.
Position N 31°08' W 081°32'.

Length 227.8 m; beam 32.3 m; draft 9.5 m.

Type: Cargo ship. MMSI: 266260000.

Date/timePositionNaut miles runAvg speedWind from/ knotsBaromVisibWave heightAir tempDewpointWater temp
2017-Aug-23 15:07N 31°08' W 081°32'0 0.0
2017-Aug-23 14:58N 31°08' W 081°32'0 0.0
2017-Aug-23 14:28N 31°08' W 081°32'0 0.0
2017-Aug-23 10:08N 31°08' W 081°32'0 0.0
2017-Aug-23 09:53N 31°08' W 081°32'0 0.7
2017-Aug-23 09:28N 31°08' W 081°32'1 2.5
2017-Aug-23 09:01N 31°08' W 081°31'4 8.9
2017-Aug-23 08:31N 31°07' W 081°26'5 9.4
2017-Aug-23 08:00N 31°06' W 081°20'612.4
2017-Aug-23 07:29N 31°02' W 081°14'5 9.9
2017-Aug-23 07:00N 31°01' W 081°09'5 9.3
2017-Aug-23 06:30N 31°02' W 081°03'610.4
2017-Aug-23 05:59N 31°03' W 080°57'510.5
2017-Aug-23 05:31N 31°03' W 080°51'710.4
2017-Aug-23 04:52N 31°07' W 080°44'410.4
2017-Aug-23 04:27N 31°09' W 080°40'28 9.6
2017-Aug-23 01:32N 31°37' W 080°38'010.6
2017-Aug-23 01:30N 31°38' W 080°38'510.9
2017-Aug-23 01:01N 31°43' W 080°38'510.9
2017-Aug-23 00:31N 31°48' W 080°39'510.8
2017-Aug-23 00:01N 31°54' W 080°40'5 9.9
2017-Aug-22 23:30N 31°58' W 080°43'612.5
2017-Aug-22 23:00N 32°02' W 080°49'511.0
2017-Aug-22 22:30N 32°02' W 080°55'510.5
2017-Aug-22 22:00N 32°06' W 080°60'4 8.3
2017-Aug-22 21:30N 32°05' W 081°05'1 2.2
2017-Aug-22 20:57N 32°05' W 081°06'0 0.0
2017-Aug-22 20:27N 32°05' W 081°06'0 0.0
2017-Aug-22 19:57N 32°05' W 081°06'0 0.0
2017-Aug-22 19:15N 32°05' W 081°06'0 0.0
2017-Aug-22 18:57N 32°05' W 081°06'0 0.0
2017-Aug-22 18:27N 32°05' W 081°06'0 0.0
2017-Aug-22 17:51N 32°05' W 081°06'0 0.0
2017-Aug-22 17:27N 32°05' W 081°06'0 0.0
2017-Aug-22 16:51N 32°05' W 081°06'0 0.0
2017-Aug-22 16:27N 32°05' W 081°06'0 0.0
2017-Aug-22 15:57N 32°05' W 081°06'0 0.0
2017-Aug-22 15:30N 32°05' W 081°06'2 3.4
2017-Aug-22 15:00N 32°07' W 081°07'1 2.7
2017-Aug-22 14:30N 32°06' W 081°06'3 6.7
2017-Aug-22 14:00N 32°05' W 081°02'510.2
2017-Aug-22 13:30N 32°03' W 080°57'4 8.4
2017-Aug-22 13:00N 32°02' W 080°52'3 6.4
2017-Aug-22 12:30N 32°01' W 080°48'4 7.3
2017-Aug-22 12:00N 31°59' W 080°45'612.8
2017-Aug-22 11:30N 31°56' W 080°38'711.8
2017-Aug-22 10:57N 31°54' W 080°30'510.6
2017-Aug-22 10:30N 31°54' W 080°25'21715.0
2017-Aug-21 19:59N 33°54' W 076°49'1515.8
2017-Aug-21 19:01N 34°04' W 076°35'715.9
2017-Aug-21 18:33N 34°09' W 076°29'115.9
2017-Aug-21 18:29N 34°09' W 076°28'816.1
2017-Aug-21 18:00N 34°15' W 076°21'916.0
2017-Aug-21 17:26N 34°21' W 076°13'715.8
2017-Aug-21 17:00N 34°25' W 076°07'13713.9
2017-Aug-21 07:08N 36°40' W 075°35'716.4
2017-Aug-21 06:44N 36°45' W 075°40'416.6
2017-Aug-21 06:29N 36°48' W 075°44'817.0
2017-Aug-21 06:00N 36°52' W 075°53'815.0
2017-Aug-21 05:30N 36°57' W 075°60'714.8
2017-Aug-21 05:00N 37°03' W 076°05'1016.3
2017-Aug-21 04:25N 37°12' W 076°09'716.7
2017-Aug-21 04:00N 37°19' W 076°06'1216.0
2017-Aug-21 03:16N 37°31' W 076°03'2516.0
2017-Aug-21 01:40N 37°55' W 076°11'317.5
2017-Aug-21 01:29N 37°58' W 076°12'917.7
2017-Aug-21 00:59N 38°07' W 076°13'1118.5
2017-Aug-21 00:23N 38°18' W 076°18'1318.8
2017-Aug-20 23:42N 38°30' W 076°24'718.2
2017-Aug-20 23:20N 38°36' W 076°26'617.6
2017-Aug-20 23:00N 38°42' W 076°26'917.6
2017-Aug-20 22:31N 38°51' W 076°24'815.7
2017-Aug-20 22:00N 38°58' W 076°23'613.0
2017-Aug-20 21:30N 39°05' W 076°24'612.6
2017-Aug-20 21:00N 39°11' W 076°26'510.7
2017-Aug-20 20:30N 39°14' W 076°32'1 2.7
2017-Aug-20 20:00N 39°15' W 076°32'0 0.0
2017-Aug-20 19:07N 39°15' W 076°32'0 0.0
2017-Aug-20 18:55N 39°15' W 076°32'0 0.0
2017-Aug-20 17:19N 39°15' W 076°32'0 0.0
2017-Aug-20 16:19N 39°15' W 076°32'0 0.0
2017-Aug-20 15:55N 39°15' W 076°32'0 0.0
2017-Aug-20 15:13N 39°15' W 076°32'0 0.0
2017-Aug-20 14:55N 39°15' W 076°32'0 0.0
2017-Aug-20 14:25N 39°15' W 076°32'0 0.0
2017-Aug-20 13:55N 39°15' W 076°32'0 0.0
2017-Aug-20 13:28N 39°15' W 076°32'0 0.0
2017-Aug-20 12:49N 39°15' W 076°32'0 0.0
2017-Aug-20 12:28N 39°15' W 076°32'0 0.0
2017-Aug-20 11:55N 39°15' W 076°32'0 0.0
2017-Aug-20 11:28N 39°15' W 076°32'0 0.0
2017-Aug-20 10:58N 39°15' W 076°32'0 0.0
2017-Aug-20 10:22N 39°15' W 076°32'0 0.0
2017-Aug-20 09:55N 39°15' W 076°32'0 0.0
2017-Aug-20 09:28N 39°15' W 076°32'0 0.0
2017-Aug-20 08:46N 39°15' W 076°32'0 0.0
2017-Aug-20 08:28N 39°15' W 076°32'0 0.0
2017-Aug-20 07:58N 39°15' W 076°32'0 0.0
2017-Aug-20 07:28N 39°15' W 076°32'0 0.0
2017-Aug-20 06:58N 39°15' W 076°32'0 0.0
2017-Aug-20 06:28N 39°15' W 076°32'0 0.0
2017-Aug-20 05:58N 39°15' W 076°32'0 0.0
2017-Aug-20 05:28N 39°15' W 076°32'0 0.0
2017-Aug-20 04:58N 39°15' W 076°32'0 0.0
2017-Aug-20 04:28N 39°15' W 076°32'0 0.0
2017-Aug-20 03:58N 39°15' W 076°32'0 0.0
2017-Aug-20 03:28N 39°15' W 076°32'1 1.1
2017-Aug-20 03:00N 39°14' W 076°33'3 5.1
2017-Aug-20 02:30N 39°12' W 076°31'510.1
2017-Aug-20 02:00N 39°10' W 076°25'713.7
2017-Aug-20 01:31N 39°03' W 076°23'815.2
2017-Aug-20 01:00N 38°55' W 076°23'917.4
2017-Aug-20 00:30N 38°47' W 076°25'917.4
2017-Aug-20 00:00N 38°38' W 076°25'816.8
2017-Aug-19 23:30N 38°30' W 076°24'2817.3
2017-Aug-19 21:55N 38°04' W 076°13'2316.5
2017-Aug-19 20:32N 37°41' W 076°10'117.0
2017-Aug-19 20:29N 37°40' W 076°09'816.7
2017-Aug-19 20:00N 37°34' W 076°03'815.8
2017-Aug-19 19:29N 37°26' W 076°05'1615.1
2017-Aug-19 18:27N 37°11' W 076°09'614.8
2017-Aug-19 18:00N 37°05' W 076°06'714.1
2017-Aug-19 17:30N 36°59' W 076°00'510.5
2017-Aug-19 17:00N 36°56' W 075°55'611.2
2017-Aug-19 16:30N 36°52' W 075°50'5413.6
2017-Aug-19 12:34N 37°28' W 075°01'614.2
2017-Aug-19 12:11N 37°33' W 074°56'314.1
2017-Aug-19 11:57N 37°35' W 074°54'714.0
2017-Aug-19 11:28N 37°41' W 074°50'714.6
2017-Aug-19 11:00N 37°47' W 074°47'914.3
2017-Aug-19 10:22N 37°56' W 074°44'614.0
2017-Aug-19 09:58N 38°02' W 074°42'714.6
2017-Aug-19 09:30N 38°08' W 074°38'815.1
2017-Aug-19 08:58N 38°15' W 074°34'815.2
2017-Aug-19 08:28N 38°22' W 074°31'915.3
2017-Aug-19 07:51N 38°31' W 074°28'1015.2
2017-Aug-19 07:12N 38°41' W 074°24'315.2
2017-Aug-19 06:58N 38°44' W 074°22'715.3
2017-Aug-19 06:31N 38°51' W 074°19'815.1
2017-Aug-19 06:00N 38°58' W 074°15'815.1
2017-Aug-19 05:30N 39°05' W 074°12'714.9
2017-Aug-19 05:00N 39°12' W 074°09'714.9
2017-Aug-19 04:31N 39°19' W 074°05'714.3
2017-Aug-19 04:00N 39°25' W 074°02'714.5
2017-Aug-19 03:30N 39°32' W 073°59'714.2
2017-Aug-19 03:00N 39°39' W 073°55'713.9
2017-Aug-19 02:30N 39°45' W 073°52'713.6
2017-Aug-19 01:59N 39°52' W 073°51'1815.0
2017-Aug-19 00:49N 40°10' W 073°49'514.7
2017-Aug-19 00:27N 40°15' W 073°49'714.8
2017-Aug-19 00:00N 40°22' W 073°49'611.4
2017-Aug-18 23:30N 40°27' W 073°51'815.9
2017-Aug-18 23:00N 40°31' W 073°60'713.7
2017-Aug-18 22:30N 40°38' W 074°03'4 7.3
2017-Aug-18 22:00N 40°39' W 074°08'2 4.8
2017-Aug-18 21:30N 40°41' W 074°08'1 1.7
2017-Aug-18 20:58N 40°42' W 074°09'0 0.0
2017-Aug-18 20:28N 40°42' W 074°09'0 0.0
2017-Aug-18 19:58N 40°42' W 074°09'0 0.0
2017-Aug-18 19:28N 40°42' W 074°09'0 0.0
2017-Aug-18 18:58N 40°42' W 074°09'0 0.0
2017-Aug-18 18:28N 40°42' W 074°09'0 0.0
2017-Aug-18 17:58N 40°42' W 074°09'0 0.0
2017-Aug-18 17:28N 40°42' W 074°09'0 0.0
2017-Aug-18 16:58N 40°42' W 074°09'0 0.0
2017-Aug-18 16:28N 40°42' W 074°09'0 0.0
2017-Aug-18 15:58N 40°42' W 074°09'0 0.0
2017-Aug-18 15:28N 40°42' W 074°09'0 0.0
2017-Aug-18 14:58N 40°42' W 074°09'0 0.0
2017-Aug-18 14:28N 40°42' W 074°09'0 0.0
2017-Aug-18 13:28N 40°42' W 074°09'0 0.0
2017-Aug-18 12:58N 40°42' W 074°09'0 0.0
2017-Aug-18 12:28N 40°42' W 074°09'0 0.0
2017-Aug-18 11:58N 40°42' W 074°09'0 0.0
2017-Aug-18 11:30N 40°42' W 074°09'1 1.1
2017-Aug-18 11:00N 40°41' W 074°08'3 5.8
2017-Aug-18 10:30N 40°39' W 074°09'3 6.6
2017-Aug-18 10:00N 40°39' W 074°04'1 1.7
2017-Aug-18 09:30N 40°40' W 074°04'0 0.5
2017-Aug-18 08:59N 40°40' W 074°04'0 0.0
2017-Aug-18 08:29N 40°40' W 074°04'0 0.0
2017-Aug-18 07:59N 40°40' W 074°04'0 0.0
2017-Aug-18 07:29N 40°40' W 074°04'0 0.0
2017-Aug-18 06:59N 40°40' W 074°04'0 0.0
2017-Aug-18 06:29N 40°40' W 074°04'0 0.0
2017-Aug-18 05:59N 40°40' W 074°04'0 0.0
2017-Aug-18 05:29N 40°40' W 074°04'0 0.0
2017-Aug-18 04:59N 40°40' W 074°04'0 0.0
2017-Aug-18 04:29N 40°40' W 074°04'0 0.0
2017-Aug-18 03:56N 40°40' W 074°04'0 0.0
2017-Aug-18 03:29N 40°40' W 074°04'0 0.0
2017-Aug-18 02:59N 40°40' W 074°04'0 0.0
2017-Aug-18 02:29N 40°40' W 074°04'0 0.0
2017-Aug-18 01:59N 40°40' W 074°04'0 0.0
2017-Aug-18 01:29N 40°40' W 074°04'0 0.0
2017-Aug-18 00:59N 40°40' W 074°04'0 0.0
2017-Aug-18 00:29N 40°40' W 074°04'0 0.0
2017-Aug-17 23:59N 40°40' W 074°04'0 0.0
2017-Aug-17 23:29N 40°40' W 074°04'0 0.0
2017-Aug-17 22:59N 40°40' W 074°04'0 0.0
2017-Aug-17 22:29N 40°40' W 074°04'0 0.0
2017-Aug-17 21:59N 40°40' W 074°04'0 0.0
2017-Aug-17 21:29N 40°40' W 074°04'0 0.0
2017-Aug-17 20:59N 40°40' W 074°04'0 0.0
2017-Aug-17 20:29N 40°40' W 074°04'0 0.0
2017-Aug-17 19:59N 40°40' W 074°04'0 0.0
2017-Aug-17 19:29N 40°40' W 074°04'0 0.0
2017-Aug-17 18:59N 40°40' W 074°04'0 0.0
2017-Aug-17 18:29N 40°40' W 074°04'0 0.0
2017-Aug-17 17:59N 40°40' W 074°04'0 0.0
2017-Aug-17 17:29N 40°40' W 074°04'0 0.0
2017-Aug-17 16:59N 40°40' W 074°04'0 0.0
2017-Aug-17 16:29N 40°40' W 074°04'0 0.0
2017-Aug-17 16:00N 40°40' W 074°04'2 3.6
2017-Aug-17 15:30N 40°38' W 074°03'510.7
2017-Aug-17 15:00N 40°33' W 074°02'712.9
2017-Aug-17 14:30N 40°29' W 073°55'611.4
2017-Aug-17 14:00N 40°27' W 073°48'713.8
2017-Aug-17 13:30N 40°28' W 073°39'714.8
2017-Aug-17 13:00N 40°28' W 073°29'715.1
2017-Aug-17 12:30N 40°29' W 073°19'1015.1
2017-Aug-17 11:52N 40°29' W 073°07'615.2
2017-Aug-17 11:30N 40°30' W 072°60'815.3
2017-Aug-17 11:00N 40°30' W 072°49'815.0
2017-Aug-17 10:30N 40°30' W 072°40'5615.0
2017-Aug-17 06:46N 40°32' W 071°26'515.3
2017-Aug-17 06:25N 40°32' W 071°19'615.3
2017-Aug-17 06:00N 40°32' W 071°10'815.2
2017-Aug-17 05:31N 40°33' W 071°00'  
2017-Aug-15 00:00N 44°24' W 061°06'6911.5 230 / 371014.710.8 19.6 19.1
2017-Aug-14 18:00N 44°18' W 059°30'8914.9 230 / 311011.510.8 19.3 19.0
2017-Aug-14 12:00N 43°54' W 057°30'7812.9 290 / 351012.410.8 18.5 19.1
2017-Aug-14 06:00N 43°30' W 055°48'8514.1 270 / 231012.2 5.4 20.0 18.7
2017-Aug-14 00:00N 43°12' W 053°54'   200 / 431016.1 2.2 21.1 21.4
Track history (hours):
 
Tides and Currents Weather Stations Pressure Air Temp Water Temp Dewpoint Dewpoint Depression Visibility Wind Speed Wind Dir Waves Ship Positions

Faust

Last reported at 2017-Aug-23 15:07 UTC. Time now 2017-Aug-23 23:27 UTC.
Position N 31°08' W 081°32'.

Length 227.8 m; beam 32.3 m; draft 9.5 m.

Type: Cargo ship. MMSI: 266260000.

Date/timePositionNaut miles runAvg speedWind from/ knotsBaromVisibWave heightAir tempDewpointWater temp
2017-Aug-23 15:07N 31°08' W 081°32'0 0.0
2017-Aug-23 14:58N 31°08' W 081°32'0 0.0
2017-Aug-23 14:28N 31°08' W 081°32'0 0.0
2017-Aug-23 10:08N 31°08' W 081°32'0 0.0
2017-Aug-23 09:53N 31°08' W 081°32'0 0.7
2017-Aug-23 09:28N 31°08' W 081°32'1 2.5
2017-Aug-23 09:01N 31°08' W 081°31'4 8.9
2017-Aug-23 08:31N 31°07' W 081°26'5 9.4
2017-Aug-23 08:00N 31°06' W 081°20'612.4
2017-Aug-23 07:29N 31°02' W 081°14'5 9.9
2017-Aug-23 07:00N 31°01' W 081°09'5 9.3
2017-Aug-23 06:30N 31°02' W 081°03'610.4
2017-Aug-23 05:59N 31°03' W 080°57'510.5
2017-Aug-23 05:31N 31°03' W 080°51'710.4
2017-Aug-23 04:52N 31°07' W 080°44'410.4
2017-Aug-23 04:27N 31°09' W 080°40'28 9.6
2017-Aug-23 01:32N 31°37' W 080°38'010.6
2017-Aug-23 01:30N 31°38' W 080°38'510.9
2017-Aug-23 01:01N 31°43' W 080°38'510.9
2017-Aug-23 00:31N 31°48' W 080°39'510.8
2017-Aug-23 00:01N 31°54' W 080°40'5 9.9
2017-Aug-22 23:30N 31°58' W 080°43'612.5
2017-Aug-22 23:00N 32°02' W 080°49'511.0
2017-Aug-22 22:30N 32°02' W 080°55'510.5
2017-Aug-22 22:00N 32°06' W 080°60'4 8.3
2017-Aug-22 21:30N 32°05' W 081°05'1 2.2
2017-Aug-22 20:57N 32°05' W 081°06'0 0.0
2017-Aug-22 20:27N 32°05' W 081°06'0 0.0
2017-Aug-22 19:57N 32°05' W 081°06'0 0.0
2017-Aug-22 19:15N 32°05' W 081°06'0 0.0
2017-Aug-22 18:57N 32°05' W 081°06'0 0.0
2017-Aug-22 18:27N 32°05' W 081°06'0 0.0
2017-Aug-22 17:51N 32°05' W 081°06'0 0.0
2017-Aug-22 17:27N 32°05' W 081°06'0 0.0
2017-Aug-22 16:51N 32°05' W 081°06'0 0.0
2017-Aug-22 16:27N 32°05' W 081°06'0 0.0
2017-Aug-22 15:57N 32°05' W 081°06'0 0.0
2017-Aug-22 15:30N 32°05' W 081°06'2 3.4
2017-Aug-22 15:00N 32°07' W 081°07'1 2.7
2017-Aug-22 14:30N 32°06' W 081°06'3 6.7
2017-Aug-22 14:00N 32°05' W 081°02'510.2
2017-Aug-22 13:30N 32°03' W 080°57'4 8.4
2017-Aug-22 13:00N 32°02' W 080°52'3 6.4
2017-Aug-22 12:30N 32°01' W 080°48'4 7.3
2017-Aug-22 12:00N 31°59' W 080°45'612.8
2017-Aug-22 11:30N 31°56' W 080°38'711.8
2017-Aug-22 10:57N 31°54' W 080°30'510.6
2017-Aug-22 10:30N 31°54' W 080°25'21715.0
2017-Aug-21 19:59N 33°54' W 076°49'1515.8
2017-Aug-21 19:01N 34°04' W 076°35'715.9
2017-Aug-21 18:33N 34°09' W 076°29'115.9
2017-Aug-21 18:29N 34°09' W 076°28'816.1
2017-Aug-21 18:00N 34°15' W 076°21'916.0
2017-Aug-21 17:26N 34°21' W 076°13'715.8
2017-Aug-21 17:00N 34°25' W 076°07'13713.9
2017-Aug-21 07:08N 36°40' W 075°35'716.4
2017-Aug-21 06:44N 36°45' W 075°40'416.6
2017-Aug-21 06:29N 36°48' W 075°44'817.0
2017-Aug-21 06:00N 36°52' W 075°53'815.0
2017-Aug-21 05:30N 36°57' W 075°60'714.8
2017-Aug-21 05:00N 37°03' W 076°05'1016.3
2017-Aug-21 04:25N 37°12' W 076°09'716.7
2017-Aug-21 04:00N 37°19' W 076°06'1216.0
2017-Aug-21 03:16N 37°31' W 076°03'2516.0
2017-Aug-21 01:40N 37°55' W 076°11'317.5
2017-Aug-21 01:29N 37°58' W 076°12'917.7
2017-Aug-21 00:59N 38°07' W 076°13'1118.5
2017-Aug-21 00:23N 38°18' W 076°18'1318.8
2017-Aug-20 23:42N 38°30' W 076°24'718.2
2017-Aug-20 23:20N 38°36' W 076°26'617.6
2017-Aug-20 23:00N 38°42' W 076°26'917.6
2017-Aug-20 22:31N 38°51' W 076°24'815.7
2017-Aug-20 22:00N 38°58' W 076°23'613.0
2017-Aug-20 21:30N 39°05' W 076°24'612.6
2017-Aug-20 21:00N 39°11' W 076°26'510.7
2017-Aug-20 20:30N 39°14' W 076°32'1 2.7
2017-Aug-20 20:00N 39°15' W 076°32'0 0.0
2017-Aug-20 19:07N 39°15' W 076°32'0 0.0
2017-Aug-20 18:55N 39°15' W 076°32'0 0.0
2017-Aug-20 17:19N 39°15' W 076°32'0 0.0
2017-Aug-20 16:19N 39°15' W 076°32'0 0.0
2017-Aug-20 15:55N 39°15' W 076°32'0 0.0
2017-Aug-20 15:13N 39°15' W 076°32'0 0.0
2017-Aug-20 14:55N 39°15' W 076°32'0 0.0
2017-Aug-20 14:25N 39°15' W 076°32'0 0.0
2017-Aug-20 13:55N 39°15' W 076°32'0 0.0
2017-Aug-20 13:28N 39°15' W 076°32'0 0.0
2017-Aug-20 12:49N 39°15' W 076°32'0 0.0
2017-Aug-20 12:28N 39°15' W 076°32'0 0.0
2017-Aug-20 11:55N 39°15' W 076°32'0 0.0
2017-Aug-20 11:28N 39°15' W 076°32'0 0.0
2017-Aug-20 10:58N 39°15' W 076°32'0 0.0
2017-Aug-20 10:22N 39°15' W 076°32'0 0.0
2017-Aug-20 09:55N 39°15' W 076°32'0 0.0
2017-Aug-20 09:28N 39°15' W 076°32'0 0.0
2017-Aug-20 08:46N 39°15' W 076°32'0 0.0
2017-Aug-20 08:28N 39°15' W 076°32'0 0.0
2017-Aug-20 07:58N 39°15' W 076°32'0 0.0
2017-Aug-20 07:28N 39°15' W 076°32'0 0.0
2017-Aug-20 06:58N 39°15' W 076°32'0 0.0
2017-Aug-20 06:28N 39°15' W 076°32'0 0.0
2017-Aug-20 05:58N 39°15' W 076°32'0 0.0
2017-Aug-20 05:28N 39°15' W 076°32'0 0.0
2017-Aug-20 04:58N 39°15' W 076°32'0 0.0
2017-Aug-20 04:28N 39°15' W 076°32'0 0.0
2017-Aug-20 03:58N 39°15' W 076°32'0 0.0
2017-Aug-20 03:28N 39°15' W 076°32'1 1.1
2017-Aug-20 03:00N 39°14' W 076°33'3 5.1
2017-Aug-20 02:30N 39°12' W 076°31'510.1
2017-Aug-20 02:00N 39°10' W 076°25'713.7
2017-Aug-20 01:31N 39°03' W 076°23'815.2
2017-Aug-20 01:00N 38°55' W 076°23'917.4
2017-Aug-20 00:30N 38°47' W 076°25'917.4
2017-Aug-20 00:00N 38°38' W 076°25'816.8
2017-Aug-19 23:30N 38°30' W 076°24'2817.3
2017-Aug-19 21:55N 38°04' W 076°13'2316.5
2017-Aug-19 20:32N 37°41' W 076°10'117.0
2017-Aug-19 20:29N 37°40' W 076°09'816.7
2017-Aug-19 20:00N 37°34' W 076°03'815.8
2017-Aug-19 19:29N 37°26' W 076°05'1615.1
2017-Aug-19 18:27N 37°11' W 076°09'614.8
2017-Aug-19 18:00N 37°05' W 076°06'714.1
2017-Aug-19 17:30N 36°59' W 076°00'510.5
2017-Aug-19 17:00N 36°56' W 075°55'611.2
2017-Aug-19 16:30N 36°52' W 075°50'5413.6
2017-Aug-19 12:34N 37°28' W 075°01'614.2
2017-Aug-19 12:11N 37°33' W 074°56'314.1
2017-Aug-19 11:57N 37°35' W 074°54'714.0
2017-Aug-19 11:28N 37°41' W 074°50'714.6
2017-Aug-19 11:00N 37°47' W 074°47'914.3
2017-Aug-19 10:22N 37°56' W 074°44'614.0
2017-Aug-19 09:58N 38°02' W 074°42'714.6
2017-Aug-19 09:30N 38°08' W 074°38'815.1
2017-Aug-19 08:58N 38°15' W 074°34'815.2
2017-Aug-19 08:28N 38°22' W 074°31'915.3
2017-Aug-19 07:51N 38°31' W 074°28'1015.2
2017-Aug-19 07:12N 38°41' W 074°24'315.2
2017-Aug-19 06:58N 38°44' W 074°22'715.3
2017-Aug-19 06:31N 38°51' W 074°19'815.1
2017-Aug-19 06:00N 38°58' W 074°15'815.1
2017-Aug-19 05:30N 39°05' W 074°12'714.9
2017-Aug-19 05:00N 39°12' W 074°09'714.9
2017-Aug-19 04:31N 39°19' W 074°05'714.3
2017-Aug-19 04:00N 39°25' W 074°02'714.5
2017-Aug-19 03:30N 39°32' W 073°59'714.2
2017-Aug-19 03:00N 39°39' W 073°55'713.9
2017-Aug-19 02:30N 39°45' W 073°52'713.6
2017-Aug-19 01:59N 39°52' W 073°51'1815.0
2017-Aug-19 00:49N 40°10' W 073°49'514.7
2017-Aug-19 00:27N 40°15' W 073°49'714.8
2017-Aug-19 00:00N 40°22' W 073°49'611.4
2017-Aug-18 23:30N 40°27' W 073°51'815.9
2017-Aug-18 23:00N 40°31' W 073°60'713.7
2017-Aug-18 22:30N 40°38' W 074°03'4 7.3
2017-Aug-18 22:00N 40°39' W 074°08'2 4.8
2017-Aug-18 21:30N 40°41' W 074°08'1 1.7
2017-Aug-18 20:58N 40°42' W 074°09'0 0.0
2017-Aug-18 20:28N 40°42' W 074°09'0 0.0
2017-Aug-18 19:58N 40°42' W 074°09'0 0.0
2017-Aug-18 19:28N 40°42' W 074°09'0 0.0
2017-Aug-18 18:58N 40°42' W 074°09'0 0.0
2017-Aug-18 18:28N 40°42' W 074°09'0 0.0
2017-Aug-18 17:58N 40°42' W 074°09'0 0.0
2017-Aug-18 17:28N 40°42' W 074°09'0 0.0
2017-Aug-18 16:58N 40°42' W 074°09'0 0.0
2017-Aug-18 16:28N 40°42' W 074°09'0 0.0
2017-Aug-18 15:58N 40°42' W 074°09'0 0.0
2017-Aug-18 15:28N 40°42' W 074°09'0 0.0
2017-Aug-18 14:58N 40°42' W 074°09'0 0.0
2017-Aug-18 14:28N 40°42' W 074°09'0 0.0
2017-Aug-18 13:28N 40°42' W 074°09'0 0.0
2017-Aug-18 12:58N 40°42' W 074°09'0 0.0
2017-Aug-18 12:28N 40°42' W 074°09'0 0.0
2017-Aug-18 11:58N 40°42' W 074°09'0 0.0
2017-Aug-18 11:30N 40°42' W 074°09'1 1.1
2017-Aug-18 11:00N 40°41' W 074°08'3 5.8
2017-Aug-18 10:30N 40°39' W 074°09'3 6.6
2017-Aug-18 10:00N 40°39' W 074°04'1 1.7
2017-Aug-18 09:30N 40°40' W 074°04'0 0.5
2017-Aug-18 08:59N 40°40' W 074°04'0 0.0
2017-Aug-18 08:29N 40°40' W 074°04'0 0.0
2017-Aug-18 07:59N 40°40' W 074°04'0 0.0
2017-Aug-18 07:29N 40°40' W 074°04'0 0.0
2017-Aug-18 06:59N 40°40' W 074°04'0 0.0
2017-Aug-18 06:29N 40°40' W 074°04'0 0.0
2017-Aug-18 05:59N 40°40' W 074°04'0 0.0
2017-Aug-18 05:29N 40°40' W 074°04'0 0.0
2017-Aug-18 04:59N 40°40' W 074°04'0 0.0
2017-Aug-18 04:29N 40°40' W 074°04'0 0.0
2017-Aug-18 03:56N 40°40' W 074°04'0 0.0
2017-Aug-18 03:29N 40°40' W 074°04'0 0.0
2017-Aug-18 02:59N 40°40' W 074°04'0 0.0
2017-Aug-18 02:29N 40°40' W 074°04'0 0.0
2017-Aug-18 01:59N 40°40' W 074°04'0 0.0
2017-Aug-18 01:29N 40°40' W 074°04'0 0.0
2017-Aug-18 00:59N 40°40' W 074°04'0 0.0
2017-Aug-18 00:29N 40°40' W 074°04'0 0.0
2017-Aug-17 23:59N 40°40' W 074°04'0 0.0
2017-Aug-17 23:29N 40°40' W 074°04'0 0.0
2017-Aug-17 22:59N 40°40' W 074°04'0 0.0
2017-Aug-17 22:29N 40°40' W 074°04'0 0.0
2017-Aug-17 21:59N 40°40' W 074°04'0 0.0
2017-Aug-17 21:29N 40°40' W 074°04'0 0.0
2017-Aug-17 20:59N 40°40' W 074°04'0 0.0
2017-Aug-17 20:29N 40°40' W 074°04'0 0.0
2017-Aug-17 19:59N 40°40' W 074°04'0 0.0
2017-Aug-17 19:29N 40°40' W 074°04'0 0.0
2017-Aug-17 18:59N 40°40' W 074°04'0 0.0
2017-Aug-17 18:29N 40°40' W 074°04'0 0.0
2017-Aug-17 17:59N 40°40' W 074°04'0 0.0
2017-Aug-17 17:29N 40°40' W 074°04'0 0.0
2017-Aug-17 16:59N 40°40' W 074°04'0 0.0
2017-Aug-17 16:29N 40°40' W 074°04'0 0.0
2017-Aug-17 16:00N 40°40' W 074°04'2 3.6
2017-Aug-17 15:30N 40°38' W 074°03'510.7
2017-Aug-17 15:00N 40°33' W 074°02'712.9
2017-Aug-17 14:30N 40°29' W 073°55'611.4
2017-Aug-17 14:00N 40°27' W 073°48'713.8
2017-Aug-17 13:30N 40°28' W 073°39'714.8
2017-Aug-17 13:00N 40°28' W 073°29'715.1
2017-Aug-17 12:30N 40°29' W 073°19'1015.1
2017-Aug-17 11:52N 40°29' W 073°07'615.2
2017-Aug-17 11:30N 40°30' W 072°60'815.3
2017-Aug-17 11:00N 40°30' W 072°49'815.0
2017-Aug-17 10:30N 40°30' W 072°40'5615.0
2017-Aug-17 06:46N 40°32' W 071°26'515.3
2017-Aug-17 06:25N 40°32' W 071°19'615.3
2017-Aug-17 06:00N 40°32' W 071°10'815.2
2017-Aug-17 05:31N 40°33' W 071°00'  
2017-Aug-15 00:00N 44°24' W 061°06'6911.5 230 / 371014.710.8 19.6 19.1
2017-Aug-14 18:00N 44°18' W 059°30'8914.9 230 / 311011.510.8 19.3 19.0
2017-Aug-14 12:00N 43°54' W 057°30'7812.9 290 / 351012.410.8 18.5 19.1
2017-Aug-14 06:00N 43°30' W 055°48'8514.1 270 / 231012.2 5.4 20.0 18.7
2017-Aug-14 00:00N 43°12' W 053°54'   200 / 431016.1 2.2 21.1 21.4

Dump ship's entire track history